sensor_id;sensor_type;location;lat;lon;timestamp;P1;durP1;ratioP1;P2;durP2;ratioP2
71869;SDS011;59739;47.696;11.746;2022-08-04T00:01:12;3.33;;;2.47;;
71869;SDS011;59739;47.696;11.746;2022-08-04T00:03:54;3.45;;;2.30;;
71869;SDS011;59739;47.696;11.746;2022-08-04T00:09:12;2.58;;;2.38;;
71869;SDS011;59739;47.696;11.746;2022-08-04T00:12:00;2.50;;;2.30;;
71869;SDS011;59739;47.696;11.746;2022-08-04T00:14:32;3.22;;;2.53;;
71869;SDS011;59739;47.696;11.746;2022-08-04T00:17:05;3.40;;;2.80;;
71869;SDS011;59739;47.696;11.746;2022-08-04T00:19:35;2.95;;;2.47;;
71869;SDS011;59739;47.696;11.746;2022-08-04T00:22:13;2.88;;;2.53;;
71869;SDS011;59739;47.696;11.746;2022-08-04T00:24:43;5.13;;;2.50;;
71869;SDS011;59739;47.696;11.746;2022-08-04T00:27:10;3.15;;;2.42;;
71869;SDS011;59739;47.696;11.746;2022-08-04T00:29:39;2.83;;;2.45;;
71869;SDS011;59739;47.696;11.746;2022-08-04T00:32:06;4.22;;;2.38;;
71869;SDS011;59739;47.696;11.746;2022-08-04T00:34:33;2.65;;;2.33;;
71869;SDS011;59739;47.696;11.746;2022-08-04T00:37:00;4.20;;;2.53;;
71869;SDS011;59739;47.696;11.746;2022-08-04T00:39:26;2.90;;;2.60;;
71869;SDS011;59739;47.696;11.746;2022-08-04T00:42:02;4.22;;;2.50;;
71869;SDS011;59739;47.696;11.746;2022-08-04T00:48:55;2.92;;;2.63;;
71869;SDS011;59739;47.696;11.746;2022-08-04T01:00:00;3.67;;;2.63;;
71869;SDS011;59739;47.696;11.746;2022-08-04T01:02:34;3.72;;;2.53;;
71869;SDS011;59739;47.696;11.746;2022-08-04T01:05:03;2.90;;;2.65;;
71869;SDS011;59739;47.696;11.746;2022-08-04T01:17:23;3.67;;;2.90;;
71869;SDS011;59739;47.696;11.746;2022-08-04T01:20:20;2.90;;;2.50;;
71869;SDS011;59739;47.696;11.746;2022-08-04T01:23:02;3.17;;;2.70;;
71869;SDS011;59739;47.696;11.746;2022-08-04T01:34:16;2.95;;;2.20;;
71869;SDS011;59739;47.696;11.746;2022-08-04T01:36:46;3.00;;;2.70;;
71869;SDS011;59739;47.696;11.746;2022-08-04T01:39:23;3.10;;;2.55;;
71869;SDS011;59739;47.696;11.746;2022-08-04T01:42:05;3.70;;;2.47;;
71869;SDS011;59739;47.696;11.746;2022-08-04T01:44:34;3.38;;;2.83;;
71869;SDS011;59739;47.696;11.746;2022-08-04T01:47:03;2.85;;;2.65;;
71869;SDS011;59739;47.696;11.746;2022-08-04T01:49:31;3.08;;;2.50;;
71869;SDS011;59739;47.696;11.746;2022-08-04T01:51:57;3.13;;;2.83;;
71869;SDS011;59739;47.696;11.746;2022-08-04T01:54:24;3.20;;;2.90;;
71869;SDS011;59739;47.696;11.746;2022-08-04T01:56:53;3.13;;;2.63;;
71869;SDS011;59739;47.696;11.746;2022-08-04T01:59:21;2.88;;;2.67;;
71869;SDS011;59739;47.696;11.746;2022-08-04T02:01:49;3.00;;;2.70;;
71869;SDS011;59739;47.696;11.746;2022-08-04T02:04:19;2.85;;;2.65;;
71869;SDS011;59739;47.696;11.746;2022-08-04T02:06:48;2.80;;;2.60;;
71869;SDS011;59739;47.696;11.746;2022-08-04T02:09:39;3.92;;;2.80;;
71869;SDS011;59739;47.696;11.746;2022-08-04T02:15:41;3.20;;;2.75;;
71869;SDS011;59739;47.696;11.746;2022-08-04T02:19:11;3.72;;;2.25;;
71869;SDS011;59739;47.696;11.746;2022-08-04T02:24:22;2.85;;;2.65;;
71869;SDS011;59739;47.696;11.746;2022-08-04T02:26:52;2.78;;;2.47;;
71869;SDS011;59739;47.696;11.746;2022-08-04T02:29:24;2.50;;;2.30;;
71869;SDS011;59739;47.696;11.746;2022-08-04T02:37:33;3.53;;;2.65;;
71869;SDS011;59739;47.696;11.746;2022-08-04T02:40:00;3.50;;;2.72;;
71869;SDS011;59739;47.696;11.746;2022-08-04T02:42:31;3.15;;;2.85;;
71869;SDS011;59739;47.696;11.746;2022-08-04T02:44:58;2.83;;;2.60;;
71869;SDS011;59739;47.696;11.746;2022-08-04T02:47:26;3.05;;;2.65;;
71869;SDS011;59739;47.696;11.746;2022-08-04T02:49:54;2.40;;;2.20;;
71869;SDS011;59739;47.696;11.746;2022-08-04T02:52:22;3.25;;;2.72;;
71869;SDS011;59739;47.696;11.746;2022-08-04T02:54:53;2.95;;;2.63;;
71869;SDS011;59739;47.696;11.746;2022-08-04T03:14:43;3.10;;;2.75;;
71869;SDS011;59739;47.696;11.746;2022-08-04T03:22:06;2.63;;;2.42;;
71869;SDS011;59739;47.696;11.746;2022-08-04T03:31:19;4.40;;;2.90;;
71869;SDS011;59739;47.696;11.746;2022-08-04T03:43:01;3.28;;;2.97;;
71869;SDS011;59739;47.696;11.746;2022-08-04T03:48:52;3.40;;;3.10;;
71869;SDS011;59739;47.696;11.746;2022-08-04T03:57:54;2.92;;;2.63;;
71869;SDS011;59739;47.696;11.746;2022-08-04T04:00:39;3.30;;;3.00;;
71869;SDS011;59739;47.696;11.746;2022-08-04T04:09:40;4.05;;;3.03;;
71869;SDS011;59739;47.696;11.746;2022-08-04T04:15:07;3.47;;;2.95;;
71869;SDS011;59739;47.696;11.746;2022-08-04T04:20:41;4.03;;;2.85;;
71869;SDS011;59739;47.696;11.746;2022-08-04T04:27:04;4.30;;;2.92;;
71869;SDS011;59739;47.696;11.746;2022-08-04T04:35:37;4.07;;;2.90;;
71869;SDS011;59739;47.696;11.746;2022-08-04T04:38:20;3.70;;;2.90;;
71869;SDS011;59739;47.696;11.746;2022-08-04T04:41:24;3.10;;;2.80;;
71869;SDS011;59739;47.696;11.746;2022-08-04T04:44:13;3.97;;;3.10;;
71869;SDS011;59739;47.696;11.746;2022-08-04T04:50:37;3.38;;;2.70;;
71869;SDS011;59739;47.696;11.746;2022-08-04T04:56:02;3.47;;;3.15;;
71869;SDS011;59739;47.696;11.746;2022-08-04T04:58:41;3.55;;;3.20;;
71869;SDS011;59739;47.696;11.746;2022-08-04T05:15:40;3.35;;;3.05;;
71869;SDS011;59739;47.696;11.746;2022-08-04T05:18:11;3.25;;;2.95;;
71869;SDS011;59739;47.696;11.746;2022-08-04T05:20:47;3.20;;;2.90;;
71869;SDS011;59739;47.696;11.746;2022-08-04T05:23:26;3.60;;;2.88;;
71869;SDS011;59739;47.696;11.746;2022-08-04T05:25:56;5.05;;;3.22;;
71869;SDS011;59739;47.696;11.746;2022-08-04T05:28:42;3.45;;;3.15;;
71869;SDS011;59739;47.696;11.746;2022-08-04T05:31:28;3.63;;;3.13;;
71869;SDS011;59739;47.696;11.746;2022-08-04T05:36:45;4.03;;;2.90;;
71869;SDS011;59739;47.696;11.746;2022-08-04T05:39:26;9.70;;;5.90;;
71869;SDS011;59739;47.696;11.746;2022-08-04T05:41:56;4.47;;;3.28;;
71869;SDS011;59739;47.696;11.746;2022-08-04T05:44:24;4.28;;;3.30;;
71869;SDS011;59739;47.696;11.746;2022-08-04T05:46:53;2.75;;;2.45;;
71869;SDS011;59739;47.696;11.746;2022-08-04T05:49:21;3.40;;;3.10;;
71869;SDS011;59739;47.696;11.746;2022-08-04T05:51:49;3.22;;;2.80;;
71869;SDS011;59739;47.696;11.746;2022-08-04T05:54:16;2.85;;;2.65;;
71869;SDS011;59739;47.696;11.746;2022-08-04T05:56:45;2.90;;;2.70;;
71869;SDS011;59739;47.696;11.746;2022-08-04T05:59:11;2.90;;;2.67;;
71869;SDS011;59739;47.696;11.746;2022-08-04T06:01:39;2.97;;;2.70;;
71869;SDS011;59739;47.696;11.746;2022-08-04T06:04:06;3.28;;;2.97;;
71869;SDS011;59739;47.696;11.746;2022-08-04T06:06:33;3.22;;;2.92;;
71869;SDS011;59739;47.696;11.746;2022-08-04T06:09:01;3.28;;;2.67;;
71869;SDS011;59739;47.696;11.746;2022-08-04T06:11:27;2.72;;;2.53;;
71869;SDS011;59739;47.696;11.746;2022-08-04T06:13:55;3.35;;;2.75;;
71869;SDS011;59739;47.696;11.746;2022-08-04T06:16:23;3.75;;;2.67;;
71869;SDS011;59739;47.696;11.746;2022-08-04T06:18:53;2.75;;;2.55;;
71869;SDS011;59739;47.696;11.746;2022-08-04T06:21:21;3.78;;;3.47;;
71869;SDS011;59739;47.696;11.746;2022-08-04T06:23:53;3.20;;;2.90;;
71869;SDS011;59739;47.696;11.746;2022-08-04T06:26:20;2.90;;;2.58;;
71869;SDS011;59739;47.696;11.746;2022-08-04T06:28:49;4.07;;;2.85;;
71869;SDS011;59739;47.696;11.746;2022-08-04T06:31:16;6.38;;;2.85;;
71869;SDS011;59739;47.696;11.746;2022-08-04T06:34:07;3.05;;;2.75;;
71869;SDS011;59739;47.696;11.746;2022-08-04T06:36:37;3.28;;;2.65;;
71869;SDS011;59739;47.696;11.746;2022-08-04T06:39:05;3.00;;;2.70;;
71869;SDS011;59739;47.696;11.746;2022-08-04T06:41:33;3.25;;;2.75;;
71869;SDS011;59739;47.696;11.746;2022-08-04T06:44:02;3.13;;;2.42;;
71869;SDS011;59739;47.696;11.746;2022-08-04T06:46:34;3.00;;;2.63;;
71869;SDS011;59739;47.696;11.746;2022-08-04T06:49:04;3.20;;;2.85;;
71869;SDS011;59739;47.696;11.746;2022-08-04T06:51:30;3.35;;;2.97;;
71869;SDS011;59739;47.696;11.746;2022-08-04T06:53:59;2.92;;;2.65;;
71869;SDS011;59739;47.696;11.746;2022-08-04T06:56:25;2.70;;;2.40;;
71869;SDS011;59739;47.696;11.746;2022-08-04T06:58:53;2.85;;;2.30;;
71869;SDS011;59739;47.696;11.746;2022-08-04T07:01:20;4.82;;;2.60;;
71869;SDS011;59739;47.696;11.746;2022-08-04T07:03:47;5.43;;;2.60;;
71869;SDS011;59739;47.696;11.746;2022-08-04T07:06:13;2.80;;;2.60;;
71869;SDS011;59739;47.696;11.746;2022-08-04T07:08:40;2.83;;;2.50;;
71869;SDS011;59739;47.696;11.746;2022-08-04T07:11:06;2.83;;;2.50;;
71869;SDS011;59739;47.696;11.746;2022-08-04T07:13:33;2.90;;;2.70;;
71869;SDS011;59739;47.696;11.746;2022-08-04T07:16:00;3.70;;;2.58;;
71869;SDS011;59739;47.696;11.746;2022-08-04T07:18:26;3.58;;;2.33;;
71869;SDS011;59739;47.696;11.746;2022-08-04T07:20:54;2.80;;;2.30;;
71869;SDS011;59739;47.696;11.746;2022-08-04T07:23:22;3.05;;;2.75;;
71869;SDS011;59739;47.696;11.746;2022-08-04T07:25:50;3.25;;;2.72;;
71869;SDS011;59739;47.696;11.746;2022-08-04T07:28:24;2.50;;;2.30;;
71869;SDS011;59739;47.696;11.746;2022-08-04T07:30:52;2.70;;;2.50;;
71869;SDS011;59739;47.696;11.746;2022-08-04T07:33:20;2.72;;;2.28;;
71869;SDS011;59739;47.696;11.746;2022-08-04T07:35:51;2.75;;;2.42;;
71869;SDS011;59739;47.696;11.746;2022-08-04T07:38:19;2.65;;;2.20;;
71869;SDS011;59739;47.696;11.746;2022-08-04T07:40:45;3.08;;;2.50;;
71869;SDS011;59739;47.696;11.746;2022-08-04T07:43:13;2.72;;;2.00;;
71869;SDS011;59739;47.696;11.746;2022-08-04T07:45:40;3.10;;;2.55;;
71869;SDS011;59739;47.696;11.746;2022-08-04T07:48:07;3.20;;;2.30;;
71869;SDS011;59739;47.696;11.746;2022-08-04T07:50:35;2.55;;;2.20;;
71869;SDS011;59739;47.696;11.746;2022-08-04T07:53:02;2.78;;;2.35;;
71869;SDS011;59739;47.696;11.746;2022-08-04T07:55:29;4.18;;;2.70;;
71869;SDS011;59739;47.696;11.746;2022-08-04T07:57:55;3.03;;;2.30;;
71869;SDS011;59739;47.696;11.746;2022-08-04T08:00:24;2.80;;;2.60;;
71869;SDS011;59739;47.696;11.746;2022-08-04T08:02:51;2.40;;;2.20;;
71869;SDS011;59739;47.696;11.746;2022-08-04T08:05:18;2.90;;;2.60;;
71869;SDS011;59739;47.696;11.746;2022-08-04T08:07:48;3.67;;;2.20;;
71869;SDS011;59739;47.696;11.746;2022-08-04T08:10:16;2.67;;;2.40;;
71869;SDS011;59739;47.696;11.746;2022-08-04T08:12:43;3.97;;;2.67;;
71869;SDS011;59739;47.696;11.746;2022-08-04T08:15:10;2.97;;;2.40;;
71869;SDS011;59739;47.696;11.746;2022-08-04T08:17:37;3.88;;;2.58;;
71869;SDS011;59739;47.696;11.746;2022-08-04T08:20:03;2.58;;;2.38;;
71869;SDS011;59739;47.696;11.746;2022-08-04T08:22:32;3.05;;;2.85;;
71869;SDS011;59739;47.696;11.746;2022-08-04T08:24:58;3.88;;;2.80;;
71869;SDS011;59739;47.696;11.746;2022-08-04T08:27:25;2.88;;;2.45;;
71869;SDS011;59739;47.696;11.746;2022-08-04T08:29:51;2.78;;;2.47;;
71869;SDS011;59739;47.696;11.746;2022-08-04T08:32:17;4.15;;;2.90;;
71869;SDS011;59739;47.696;11.746;2022-08-04T08:34:44;3.63;;;2.60;;
71869;SDS011;59739;47.696;11.746;2022-08-04T08:45:55;2.58;;;2.38;;
71869;SDS011;59739;47.696;11.746;2022-08-04T08:51:36;2.90;;;2.50;;
71869;SDS011;59739;47.696;11.746;2022-08-04T09:00:03;2.65;;;2.45;;
71869;SDS011;59739;47.696;11.746;2022-08-04T09:05:49;2.42;;;2.22;;
71869;SDS011;59739;47.696;11.746;2022-08-04T09:08:54;2.88;;;2.60;;
71869;SDS011;59739;47.696;11.746;2022-08-04T09:11:59;2.58;;;2.30;;
71869;SDS011;59739;47.696;11.746;2022-08-04T09:14:44;3.55;;;2.60;;
71869;SDS011;59739;47.696;11.746;2022-08-04T09:17:50;2.80;;;2.47;;
71869;SDS011;59739;47.696;11.746;2022-08-04T09:20:42;2.67;;;2.47;;
71869;SDS011;59739;47.696;11.746;2022-08-04T09:35:10;3.33;;;2.50;;
71869;SDS011;59739;47.696;11.746;2022-08-04T09:37:53;3.70;;;2.50;;
71869;SDS011;59739;47.696;11.746;2022-08-04T09:40:32;3.47;;;2.50;;
71869;SDS011;59739;47.696;11.746;2022-08-04T09:46:14;3.80;;;2.75;;
71869;SDS011;59739;47.696;11.746;2022-08-04T09:49:14;2.80;;;2.60;;
71869;SDS011;59739;47.696;11.746;2022-08-04T10:00:40;3.05;;;2.63;;
71869;SDS011;59739;47.696;11.746;2022-08-04T10:03:12;5.50;;;2.28;;
71869;SDS011;59739;47.696;11.746;2022-08-04T10:05:48;2.97;;;2.40;;
71869;SDS011;59739;47.696;11.746;2022-08-04T10:08:59;4.05;;;2.30;;
71869;SDS011;59739;47.696;11.746;2022-08-04T10:20:48;2.28;;;2.08;;
71869;SDS011;59739;47.696;11.746;2022-08-04T10:24:00;2.10;;;1.70;;
71869;SDS011;59739;47.696;11.746;2022-08-04T10:26:48;2.97;;;2.10;;
71869;SDS011;59739;47.696;11.746;2022-08-04T10:29:25;1.85;;;1.75;;
71869;SDS011;59739;47.696;11.746;2022-08-04T10:32:39;1.88;;;1.77;;
71869;SDS011;59739;47.696;11.746;2022-08-04T10:40:52;2.40;;;1.83;;
71869;SDS011;59739;47.696;11.746;2022-08-04T10:46:30;1.83;;;1.70;;
71869;SDS011;59739;47.696;11.746;2022-08-04T10:49:08;1.85;;;1.73;;
71869;SDS011;59739;47.696;11.746;2022-08-04T10:58:06;2.10;;;1.90;;
71869;SDS011;59739;47.696;11.746;2022-08-04T11:00:38;3.05;;;2.00;;
71869;SDS011;59739;47.696;11.746;2022-08-04T11:03:12;2.70;;;1.80;;
71869;SDS011;59739;47.696;11.746;2022-08-04T11:05:57;2.13;;;1.92;;
71869;SDS011;59739;47.696;11.746;2022-08-04T11:13:21;2.95;;;1.85;;
71869;SDS011;59739;47.696;11.746;2022-08-04T11:15:50;1.98;;;1.77;;
71869;SDS011;59739;47.696;11.746;2022-08-04T11:18:24;1.77;;;1.67;;
71869;SDS011;59739;47.696;11.746;2022-08-04T11:21:43;2.17;;;1.67;;
71869;SDS011;59739;47.696;11.746;2022-08-04T11:24:02;1.83;;;1.73;;
71869;SDS011;59739;47.696;11.746;2022-08-04T11:27:02;2.17;;;1.98;;
71869;SDS011;59739;47.696;11.746;2022-08-04T11:29:39;4.45;;;1.77;;
71869;SDS011;59739;47.696;11.746;2022-08-04T11:32:28;3.58;;;1.60;;
71869;SDS011;59739;47.696;11.746;2022-08-04T11:35:04;2.05;;;1.88;;
71869;SDS011;59739;47.696;11.746;2022-08-04T11:37:51;2.08;;;1.70;;
71869;SDS011;59739;47.696;11.746;2022-08-04T11:40:42;2.15;;;1.83;;
71869;SDS011;59739;47.696;11.746;2022-08-04T11:43:12;1.77;;;1.67;;
71869;SDS011;59739;47.696;11.746;2022-08-04T11:46:06;2.40;;;1.67;;
71869;SDS011;59739;47.696;11.746;2022-08-04T11:48:44;2.58;;;1.63;;
71869;SDS011;59739;47.696;11.746;2022-08-04T11:51:18;1.52;;;1.42;;
71869;SDS011;59739;47.696;11.746;2022-08-04T11:53:44;3.65;;;1.85;;
71869;SDS011;59739;47.696;11.746;2022-08-04T11:56:12;2.90;;;1.75;;
71869;SDS011;59739;47.696;11.746;2022-08-04T11:58:40;3.08;;;1.80;;
71869;SDS011;59739;47.696;11.746;2022-08-04T12:01:22;3.75;;;1.90;;
71869;SDS011;59739;47.696;11.746;2022-08-04T12:06:48;1.90;;;1.80;;
71869;SDS011;59739;47.696;11.746;2022-08-04T12:09:48;1.75;;;1.45;;
71869;SDS011;59739;47.696;11.746;2022-08-04T12:12:34;1.98;;;1.75;;
71869;SDS011;59739;47.696;11.746;2022-08-04T12:15:52;2.00;;;1.90;;
71869;SDS011;59739;47.696;11.746;2022-08-04T12:19:03;2.00;;;1.67;;
71869;SDS011;59739;47.696;11.746;2022-08-04T12:21:48;2.85;;;1.83;;
71869;SDS011;59739;47.696;11.746;2022-08-04T12:24:36;5.20;;;1.92;;
71869;SDS011;59739;47.696;11.746;2022-08-04T12:27:17;2.30;;;2.00;;
71869;SDS011;59739;47.696;11.746;2022-08-04T12:29:50;1.95;;;1.70;;
71869;SDS011;59739;47.696;11.746;2022-08-04T12:37:47;2.55;;;1.90;;
71869;SDS011;59739;47.696;11.746;2022-08-04T12:40:27;1.75;;;1.63;;
71869;SDS011;59739;47.696;11.746;2022-08-04T12:43:28;4.43;;;1.90;;
71869;SDS011;59739;47.696;11.746;2022-08-04T12:46:08;1.70;;;1.60;;
71869;SDS011;59739;47.696;11.746;2022-08-04T12:48:46;2.05;;;1.83;;
71869;SDS011;59739;47.696;11.746;2022-08-04T12:51:13;2.22;;;1.58;;
71869;SDS011;59739;47.696;11.746;2022-08-04T12:53:40;3.88;;;1.92;;
71869;SDS011;59739;47.696;11.746;2022-08-04T12:56:07;3.25;;;1.90;;
71869;SDS011;59739;47.696;11.746;2022-08-04T12:58:36;1.63;;;1.52;;
71869;SDS011;59739;47.696;11.746;2022-08-04T13:01:06;1.77;;;1.60;;
71869;SDS011;59739;47.696;11.746;2022-08-04T13:03:43;1.92;;;1.67;;
71869;SDS011;59739;47.696;11.746;2022-08-04T13:06:14;1.83;;;1.60;;
71869;SDS011;59739;47.696;11.746;2022-08-04T13:08:42;2.20;;;1.92;;
71869;SDS011;59739;47.696;11.746;2022-08-04T13:11:10;1.70;;;1.60;;
71869;SDS011;59739;47.696;11.746;2022-08-04T13:13:38;1.83;;;1.50;;
71869;SDS011;59739;47.696;11.746;2022-08-04T13:16:06;3.88;;;1.73;;
71869;SDS011;59739;47.696;11.746;2022-08-04T13:18:38;1.77;;;1.67;;
71869;SDS011;59739;47.696;11.746;2022-08-04T13:23:46;2.17;;;1.80;;
71869;SDS011;59739;47.696;11.746;2022-08-04T13:26:23;2.42;;;1.70;;
71869;SDS011;59739;47.696;11.746;2022-08-04T13:28:51;1.73;;;1.60;;
71869;SDS011;59739;47.696;11.746;2022-08-04T13:31:19;2.47;;;1.77;;
71869;SDS011;59739;47.696;11.746;2022-08-04T13:33:48;2.03;;;1.63;;
71869;SDS011;59739;47.696;11.746;2022-08-04T13:36:17;2.40;;;1.60;;
71869;SDS011;59739;47.696;11.746;2022-08-04T13:38:51;1.85;;;1.75;;
71869;SDS011;59739;47.696;11.746;2022-08-04T13:41:27;2.10;;;2.00;;
71869;SDS011;59739;47.696;11.746;2022-08-04T13:43:57;2.53;;;1.70;;
71869;SDS011;59739;47.696;11.746;2022-08-04T13:46:27;3.75;;;1.70;;
71869;SDS011;59739;47.696;11.746;2022-08-04T13:48:56;1.87;;;1.73;;
71869;SDS011;59739;47.696;11.746;2022-08-04T13:51:27;2.05;;;1.55;;
71869;SDS011;59739;47.696;11.746;2022-08-04T13:53:56;1.75;;;1.60;;
71869;SDS011;59739;47.696;11.746;2022-08-04T13:56:46;1.98;;;1.60;;
71869;SDS011;59739;47.696;11.746;2022-08-04T14:01:44;2.72;;;1.80;;
71869;SDS011;59739;47.696;11.746;2022-08-04T14:04:27;2.67;;;1.75;;
71869;SDS011;59739;47.696;11.746;2022-08-04T14:09:37;4.72;;;1.77;;
71869;SDS011;59739;47.696;11.746;2022-08-04T14:12:08;2.30;;;1.77;;
71869;SDS011;59739;47.696;11.746;2022-08-04T14:14:44;5.00;;;2.10;;
71869;SDS011;59739;47.696;11.746;2022-08-04T14:17:17;2.55;;;1.85;;
71869;SDS011;59739;47.696;11.746;2022-08-04T14:19:55;5.03;;;2.22;;
71869;SDS011;59739;47.696;11.746;2022-08-04T14:22:27;1.85;;;1.63;;
71869;SDS011;59739;47.696;11.746;2022-08-04T14:25:03;3.30;;;1.70;;
71869;SDS011;59739;47.696;11.746;2022-08-04T14:27:40;1.80;;;1.70;;
71869;SDS011;59739;47.696;11.746;2022-08-04T14:33:00;3.95;;;2.10;;
71869;SDS011;59739;47.696;11.746;2022-08-04T14:35:36;2.38;;;2.15;;
71869;SDS011;59739;47.696;11.746;2022-08-04T14:38:04;3.53;;;1.90;;
71869;SDS011;59739;47.696;11.746;2022-08-04T14:40:34;1.77;;;1.65;;
71869;SDS011;59739;47.696;11.746;2022-08-04T14:43:03;2.25;;;1.80;;
71869;SDS011;59739;47.696;11.746;2022-08-04T14:48:01;2.05;;;1.85;;
71869;SDS011;59739;47.696;11.746;2022-08-04T14:50:34;2.10;;;1.73;;
71869;SDS011;59739;47.696;11.746;2022-08-04T14:53:11;3.15;;;1.90;;
71869;SDS011;59739;47.696;11.746;2022-08-04T14:55:44;3.28;;;2.03;;
71869;SDS011;59739;47.696;11.746;2022-08-04T14:58:32;2.30;;;2.10;;
71869;SDS011;59739;47.696;11.746;2022-08-04T15:01:00;2.58;;;2.10;;
71869;SDS011;59739;47.696;11.746;2022-08-04T15:03:28;2.05;;;1.70;;
71869;SDS011;59739;47.696;11.746;2022-08-04T15:05:56;1.92;;;1.83;;
71869;SDS011;59739;47.696;11.746;2022-08-04T15:08:25;3.17;;;2.10;;
71869;SDS011;59739;47.696;11.746;2022-08-04T15:10:52;2.65;;;2.10;;
71869;SDS011;59739;47.696;11.746;2022-08-04T15:13:23;2.00;;;1.90;;
71869;SDS011;59739;47.696;11.746;2022-08-04T15:15:50;3.08;;;2.25;;
71869;SDS011;59739;47.696;11.746;2022-08-04T15:18:16;2.13;;;1.95;;
71869;SDS011;59739;47.696;11.746;2022-08-04T15:20:43;2.10;;;1.80;;
71869;SDS011;59739;47.696;11.746;2022-08-04T15:23:09;1.90;;;1.80;;
71869;SDS011;59739;47.696;11.746;2022-08-04T15:25:46;2.65;;;1.80;;
71869;SDS011;59739;47.696;11.746;2022-08-04T15:28:17;2.80;;;1.80;;
71869;SDS011;59739;47.696;11.746;2022-08-04T15:30:47;2.35;;;2.10;;
71869;SDS011;59739;47.696;11.746;2022-08-04T15:33:14;2.58;;;2.10;;
71869;SDS011;59739;47.696;11.746;2022-08-04T15:35:47;2.33;;;2.08;;
71869;SDS011;59739;47.696;11.746;2022-08-04T15:41:04;2.13;;;1.92;;
71869;SDS011;59739;47.696;11.746;2022-08-04T15:49:27;2.30;;;2.10;;
71869;SDS011;59739;47.696;11.746;2022-08-04T15:54:31;3.25;;;2.00;;
71869;SDS011;59739;47.696;11.746;2022-08-04T15:57:00;2.20;;;2.00;;
71869;SDS011;59739;47.696;11.746;2022-08-04T16:12:55;3.10;;;2.10;;
71869;SDS011;59739;47.696;11.746;2022-08-04T16:15:35;2.33;;;2.13;;
71869;SDS011;59739;47.696;11.746;2022-08-04T16:18:21;4.53;;;2.40;;
71869;SDS011;59739;47.696;11.746;2022-08-04T16:21:14;2.80;;;2.28;;
71869;SDS011;59739;47.696;11.746;2022-08-04T16:37:01;3.28;;;2.65;;
71869;SDS011;59739;47.696;11.746;2022-08-04T16:39:30;2.27;;;2.07;;
71869;SDS011;59739;47.696;11.746;2022-08-04T16:41:56;2.40;;;2.20;;
71869;SDS011;59739;47.696;11.746;2022-08-04T16:44:35;3.10;;;2.25;;
71869;SDS011;59739;47.696;11.746;2022-08-04T16:47:07;2.03;;;1.90;;
71869;SDS011;59739;47.696;11.746;2022-08-04T16:49:33;3.75;;;2.15;;
71869;SDS011;59739;47.696;11.746;2022-08-04T16:52:03;2.45;;;2.25;;
71869;SDS011;59739;47.696;11.746;2022-08-04T16:54:32;2.40;;;2.15;;
71869;SDS011;59739;47.696;11.746;2022-08-04T16:57:06;4.80;;;2.30;;
71869;SDS011;59739;47.696;11.746;2022-08-04T16:59:34;4.20;;;2.20;;
71869;SDS011;59739;47.696;11.746;2022-08-04T17:02:00;3.95;;;2.53;;
71869;SDS011;59739;47.696;11.746;2022-08-04T17:04:30;2.92;;;2.50;;
71869;SDS011;59739;47.696;11.746;2022-08-04T17:09:30;5.00;;;4.07;;
71869;SDS011;59739;47.696;11.746;2022-08-04T17:11:57;4.03;;;3.13;;
71869;SDS011;59739;47.696;11.746;2022-08-04T17:14:27;7.97;;;7.28;;
71869;SDS011;59739;47.696;11.746;2022-08-04T17:16:55;6.57;;;5.97;;
71869;SDS011;59739;47.696;11.746;2022-08-04T17:19:23;10.15;;;9.35;;
71869;SDS011;59739;47.696;11.746;2022-08-04T17:21:50;9.98;;;9.05;;
71869;SDS011;59739;47.696;11.746;2022-08-04T17:24:21;4.82;;;4.35;;
71869;SDS011;59739;47.696;11.746;2022-08-04T17:26:47;3.83;;;3.10;;
71869;SDS011;59739;47.696;11.746;2022-08-04T17:29:16;4.10;;;3.20;;
71869;SDS011;59739;47.696;11.746;2022-08-04T17:31:42;3.20;;;2.88;;
71869;SDS011;59739;47.696;11.746;2022-08-04T17:34:09;5.25;;;2.72;;
71869;SDS011;59739;47.696;11.746;2022-08-04T17:36:38;4.53;;;2.70;;
71869;SDS011;59739;47.696;11.746;2022-08-04T17:39:12;2.55;;;2.35;;
71869;SDS011;59739;47.696;11.746;2022-08-04T17:41:44;2.55;;;2.30;;
71869;SDS011;59739;47.696;11.746;2022-08-04T17:44:12;3.28;;;2.22;;
71869;SDS011;59739;47.696;11.746;2022-08-04T17:46:38;2.75;;;2.55;;
71869;SDS011;59739;47.696;11.746;2022-08-04T17:51:46;5.75;;;2.83;;
71869;SDS011;59739;47.696;11.746;2022-08-04T17:56:55;6.38;;;3.00;;
71869;SDS011;59739;47.696;11.746;2022-08-04T18:07:03;3.95;;;3.38;;
71869;SDS011;59739;47.696;11.746;2022-08-04T18:12:06;6.18;;;3.60;;
71869;SDS011;59739;47.696;11.746;2022-08-04T18:14:41;6.55;;;4.53;;
71869;SDS011;59739;47.696;11.746;2022-08-04T18:17:13;5.97;;;3.30;;
71869;SDS011;59739;47.696;11.746;2022-08-04T18:19:57;3.13;;;2.83;;
71869;SDS011;59739;47.696;11.746;2022-08-04T18:22:25;2.85;;;2.53;;
71869;SDS011;59739;47.696;11.746;2022-08-04T18:24:51;3.88;;;2.85;;
71869;SDS011;59739;47.696;11.746;2022-08-04T18:27:19;3.58;;;3.10;;
71869;SDS011;59739;47.696;11.746;2022-08-04T18:30:04;3.15;;;2.95;;
71869;SDS011;59739;47.696;11.746;2022-08-04T18:32:30;4.82;;;2.90;;
71869;SDS011;59739;47.696;11.746;2022-08-04T18:34:57;3.33;;;3.05;;
71869;SDS011;59739;47.696;11.746;2022-08-04T18:37:22;2.72;;;2.53;;
71869;SDS011;59739;47.696;11.746;2022-08-04T18:39:48;3.10;;;2.70;;
71869;SDS011;59739;47.696;11.746;2022-08-04T18:42:14;6.47;;;4.18;;
71869;SDS011;59739;47.696;11.746;2022-08-04T18:44:41;4.85;;;3.45;;
71869;SDS011;59739;47.696;11.746;2022-08-04T18:47:10;3.42;;;2.75;;
71869;SDS011;59739;47.696;11.746;2022-08-04T18:49:36;5.05;;;2.95;;
71869;SDS011;59739;47.696;11.746;2022-08-04T18:52:02;4.03;;;2.83;;
71869;SDS011;59739;47.696;11.746;2022-08-04T18:54:28;4.78;;;3.10;;
71869;SDS011;59739;47.696;11.746;2022-08-04T18:56:58;5.90;;;3.92;;
71869;SDS011;59739;47.696;11.746;2022-08-04T18:59:27;3.60;;;3.30;;
71869;SDS011;59739;47.696;11.746;2022-08-04T19:01:53;3.42;;;3.13;;
71869;SDS011;59739;47.696;11.746;2022-08-04T19:04:19;4.80;;;3.00;;
71869;SDS011;59739;47.696;11.746;2022-08-04T19:06:46;5.78;;;3.00;;
71869;SDS011;59739;47.696;11.746;2022-08-04T19:09:12;5.63;;;3.05;;
71869;SDS011;59739;47.696;11.746;2022-08-04T19:11:38;4.40;;;3.08;;
71869;SDS011;59739;47.696;11.746;2022-08-04T19:14:04;4.97;;;3.28;;
71869;SDS011;59739;47.696;11.746;2022-08-04T19:16:32;4.72;;;3.50;;
71869;SDS011;59739;47.696;11.746;2022-08-04T19:18:59;3.63;;;3.30;;
71869;SDS011;59739;47.696;11.746;2022-08-04T19:21:28;3.45;;;2.90;;
71869;SDS011;59739;47.696;11.746;2022-08-04T19:23:54;3.92;;;2.92;;
71869;SDS011;59739;47.696;11.746;2022-08-04T19:26:21;3.33;;;3.00;;
71869;SDS011;59739;47.696;11.746;2022-08-04T19:28:49;3.80;;;3.17;;
71869;SDS011;59739;47.696;11.746;2022-08-04T19:31:17;4.80;;;3.10;;
71869;SDS011;59739;47.696;11.746;2022-08-04T19:33:43;4.13;;;3.00;;
71869;SDS011;59739;47.696;11.746;2022-08-04T19:36:10;3.85;;;3.40;;
71869;SDS011;59739;47.696;11.746;2022-08-04T19:38:36;5.25;;;3.42;;
71869;SDS011;59739;47.696;11.746;2022-08-04T19:41:07;4.95;;;3.88;;
71869;SDS011;59739;47.696;11.746;2022-08-04T19:43:33;5.72;;;3.53;;
71869;SDS011;59739;47.696;11.746;2022-08-04T19:45:59;5.55;;;3.80;;
71869;SDS011;59739;47.696;11.746;2022-08-04T19:48:26;6.35;;;3.72;;
71869;SDS011;59739;47.696;11.746;2022-08-04T19:50:52;5.65;;;3.78;;
71869;SDS011;59739;47.696;11.746;2022-08-04T19:53:18;4.25;;;3.88;;
71869;SDS011;59739;47.696;11.746;2022-08-04T19:55:45;7.95;;;6.35;;
71869;SDS011;59739;47.696;11.746;2022-08-04T19:58:12;6.15;;;5.55;;